Aviation Digital Data Service (ADDS)

Output produced by METARs form (1945 UTC 07 July 2015)
found at http://aviationweather.gov/adds/metars/
 
KPBG 071731Z 0718/0818 14012KT P6SM VCSH SCT050 BKN080 
     FM072300 17006KT P6SM FEW060 SCT200 
     FM080500 27006KT 5SM -SHRA BR OVC050 
     FM080800 31007KT P6SM BKN025 OVC050 
     FM081100 01007KT P6SM FEW200